Da?oguz Airport
UTAT : now visible

Airfield :











YOU CAN JOIN US ON...

 
LOGIN :

Register | Disclaimer

   EN    FR    IT 

 









Legend :    VFR   Marginal VFR   IFR   Intensive IFR   Very Intensive IFR
Visi :
Ceiling :
>= 8 km
>= 3000ft
5 to 8 km
1000 to 3000 ft
1500m to 5 km
500 to 1000 ft
800 to 1500m
200 to 500 ft
< 800m
< 200 ft
Symbols :   Thunderstorms  Fog  Heavy snow  Heavy precipitations  Wind > 20 kt






- Airport Elevation : 272 ft
- IATA code : TAZ


UTAT - Da?oguz

CURRENT METAR :
  • 250100Z 24002KT 7000 BKN033 M06/M07 Q1024 R26/39//45 TEMPO 0500 FZFG VV002

EXPIRED METARs :
  • 250000Z 27004KT 6000 OVC016 M04/M04 Q1024 R08/19//60 TEMPO 0500 FZFG VV002
  • 242300Z 31004KT 6000 OVC016 M02/M03 Q1024 R08/19//60 TEMPO 1000 BR OVC003

TAF AMD TAF UTAT
Valid from the 25 at 00:00 until the 26 at 00:00 UTC


250003Z 2500/2524 27010KT 2000 BR OVC005
TEMPO 2500/2505 0300 FZFG VV001
BECMG 2505/2507 5000 BKN020 OVC100
UTAT FIR / Asia



MET'MAP, your aeronautical weather chart ! - Copyright ORBIFLY December 2007 - Disclaimer

ORBIFLY MET'MAP TEAM :

Programming & Development : Alexandra Zaïnal
Concept & original design : Baudouin d'Aumeries
Assistance for programming : Marc-Olivier Méhu
Technical & hardware support : Manuel Goepfert

Contact : metmap@orbifly.com




SOURCES & CREDITS :

   NOAA       Earth
Advisory